Time;durP1;ratioP1;P1;durP2;ratioP2;P2;SDS_P1;SDS_P2;PMS_P1;PMS_P2;Temp;Humidity;BMP_temperature;BMP_pressure;BME280_temperature;BME280_humidity;BME280_pressure;Samples;Min_cycle;Max_cycle;Signal;HPM_P1;HPM_P2
2021/04/09 00:00:38;;;;;;;1.33;0.70;;;8.50;60.10;;;;;;4360416;32;20179;-34
2021/04/09 00:03:05;;;;;;;2.83;0.93;;;8.40;60.30;;;;;;4360548;32;20058;-35
2021/04/09 00:05:31;;;;;;;2.07;0.90;;;8.50;60.40;;;;;;4360417;32;20067;-34
2021/04/09 00:07:58;;;;;;;1.97;0.80;;;8.40;60.50;;;;;;4360082;32;20070;-34
2021/04/09 00:10:26;;;;;;;2.00;1.10;;;8.40;60.70;;;;;;4360319;32;20519;-34
2021/04/09 00:12:52;;;;;;;1.80;1.10;;;8.30;60.60;;;;;;4360244;32;20050;-34
2021/04/09 00:15:19;;;;;;;1.50;1.00;;;8.20;60.90;;;;;;4358355;32;20074;-35
2021/04/09 00:17:46;;;;;;;4.23;1.40;;;8.30;60.90;;;;;;4360407;32;20071;-33
2021/04/09 00:20:19;;;;;;;1.20;1.07;;;8.30;60.70;;;;;;4360221;32;20530;-36
2021/04/09 00:22:46;;;;;;;1.70;1.07;;;8.20;60.90;;;;;;4358647;32;20069;-34
2021/04/09 00:25:13;;;;;;;1.80;1.20;;;8.30;61.00;;;;;;4346052;32;20462;-33
2021/04/09 00:27:40;;;;;;;2.80;1.03;;;8.20;61.00;;;;;;4358846;32;20504;-35
2021/04/09 00:30:17;;;;;;;1.77;0.63;;;8.20;61.10;;;;;;4358999;32;20152;-34
2021/04/09 00:32:45;;;;;;;2.00;1.13;;;8.20;61.10;;;;;;4357892;32;20151;-35
2021/04/09 00:35:13;;;;;;;0.77;0.60;;;8.20;61.00;;;;;;4353072;32;20066;-34
2021/04/09 00:37:39;;;;;;;3.37;1.03;;;8.20;61.00;;;;;;4331585;33;20066;-34
2021/04/09 00:40:07;;;;;;;4.07;0.80;;;8.30;61.00;;;;;;4343555;33;20081;-37
2021/04/09 00:42:34;;;;;;;0.87;0.50;;;8.30;60.80;;;;;;4345180;32;20527;-35
2021/04/09 00:45:00;;;;;;;1.17;0.70;;;8.30;60.80;;;;;;4343050;33;20066;-35
2021/04/09 00:47:27;;;;;;;1.83;0.70;;;8.30;60.70;;;;;;4343366;33;20160;-37
2021/04/09 00:49:53;;;;;;;1.87;0.60;;;8.30;60.60;;;;;;4344500;32;20078;-37
2021/04/09 00:52:21;;;;;;;0.90;0.70;;;8.30;60.50;;;;;;4343079;33;20078;-36
2021/04/09 00:54:48;;;;;;;1.00;0.50;;;8.30;60.40;;;;;;4343213;33;20086;-35
2021/04/09 00:57:16;;;;;;;0.80;0.37;;;8.30;60.40;;;;;;4318462;33;20627;-34
2021/04/09 00:59:43;;;;;;;1.30;0.50;;;8.30;60.60;;;;;;4343247;33;20437;-38
2021/04/09 01:02:09;;;;;;;0.70;0.40;;;8.20;60.60;;;;;;4331073;33;20058;-39
2021/04/09 01:04:36;;;;;;;1.43;0.70;;;8.10;60.40;;;;;;4343157;33;20137;-35
2021/04/09 01:07:03;;;;;;;1.30;0.50;;;8.20;60.40;;;;;;4343038;33;20125;-35
2021/04/09 01:09:30;;;;;;;2.70;0.60;;;8.10;60.40;;;;;;4343147;33;20173;-34
2021/04/09 01:11:56;;;;;;;1.63;0.50;;;8.10;60.40;;;;;;4344551;33;20066;-34
2021/04/09 01:14:22;;;;;;;3.70;0.70;;;8.00;60.60;;;;;;4342639;33;20078;-36
2021/04/09 01:16:55;;;;;;;1.37;0.70;;;8.00;60.70;;;;;;4344344;33;20507;-35
2021/04/09 01:19:58;;;;;;;1.30;0.73;;;8.00;60.60;;;;;;4342568;33;20131;-36
2021/04/09 01:22:28;;;;;;;3.63;1.00;;;8.00;60.50;;;;;;4344158;33;20059;-36
2021/04/09 01:25:09;;;;;;;1.00;0.80;;;8.00;60.50;;;;;;4330970;33;20139;-35
2021/04/09 01:28:16;;;;;;;0.97;0.43;;;7.90;60.40;;;;;;4344509;32;20063;-36
2021/04/09 01:31:13;;;;;;;2.03;1.23;;;7.90;60.40;;;;;;4330780;33;20070;-38
2021/04/09 01:33:46;;;;;;;0.70;0.50;;;7.90;60.50;;;;;;4343912;32;20066;-39
2021/04/09 01:36:21;;;;;;;5.43;1.17;;;7.90;60.50;;;;;;4354469;32;20066;-37
2021/04/09 01:39:11;;;;;;;3.10;0.90;;;7.90;60.50;;;;;;4357598;32;20078;-35
2021/04/09 01:41:38;;;;;;;1.17;0.70;;;7.80;60.40;;;;;;4345557;32;20071;-35
2021/04/09 01:44:06;;;;;;;1.80;0.70;;;7.80;60.50;;;;;;4332873;32;20054;-35
2021/04/09 01:46:39;;;;;;;1.10;0.50;;;7.80;60.70;;;;;;4358579;32;20109;-37
2021/04/09 01:49:06;;;;;;;1.83;0.60;;;7.70;60.70;;;;;;4345367;32;20605;-35
2021/04/09 01:51:33;;;;;;;1.13;0.60;;;7.70;60.90;;;;;;4357557;32;20098;-37
2021/04/09 01:53:59;;;;;;;1.63;0.60;;;7.70;61.00;;;;;;4314008;33;20196;-40
2021/04/09 01:56:26;;;;;;;1.13;0.70;;;7.60;60.90;;;;;;4314329;33;20519;-41
2021/04/09 01:58:52;;;;;;;1.30;0.80;;;7.60;60.80;;;;;;4302480;33;20109;-42
2021/04/09 02:01:19;;;;;;;1.07;0.40;;;7.60;60.80;;;;;;4314292;33;20075;-40
2021/04/09 02:03:51;;;;;;;0.40;0.30;;;7.60;60.80;;;;;;4314319;33;20090;-41
2021/04/09 02:06:18;;;;;;;2.03;1.20;;;7.40;60.80;;;;;;4314263;33;20154;-42
2021/04/09 02:08:44;;;;;;;1.73;0.70;;;7.30;60.80;;;;;;4314508;33;20070;-40
2021/04/09 02:11:11;;;;;;;1.33;0.80;;;7.20;60.90;;;;;;4302359;33;20641;-39
2021/04/09 02:13:38;;;;;;;2.30;0.67;;;7.10;60.80;;;;;;4301869;33;20081;-41
2021/04/09 02:16:05;;;;;;;0.70;0.40;;;7.00;61.10;;;;;;4314191;33;20099;-39
2021/04/09 02:18:31;;;;;;;2.40;0.60;;;6.90;61.30;;;;;;4314430;33;20079;-41
2021/04/09 02:21:01;;;;;;;1.67;0.70;;;6.90;61.60;;;;;;4326263;33;20091;-43
2021/04/09 02:23:28;;;;;;;0.93;0.70;;;6.70;61.70;;;;;;4314222;33;20584;-43
2021/04/09 02:25:58;;;;;;;1.43;0.90;;;6.70;61.80;;;;;;4326167;33;20056;-44
2021/04/09 02:28:26;;;;;;;1.73;0.50;;;6.50;61.90;;;;;;4326553;33;20078;-44
2021/04/09 02:31:03;;;;;;;3.10;0.60;;;6.40;62.10;;;;;;4335077;32;20140;-45
2021/04/09 02:33:33;;;;;;;0.70;0.50;;;6.30;62.90;;;;;;4358132;32;20065;-44
2021/04/09 02:36:21;;;;;;;3.30;0.70;;;6.30;62.40;;;;;;4348092;32;20075;-47
2021/04/09 02:38:54;;;;;;;2.37;0.80;;;6.20;62.50;;;;;;4343222;33;20082;-45
2021/04/09 02:41:22;;;;;;;1.77;0.87;;;6.10;62.60;;;;;;4342012;33;20580;-44
2021/04/09 02:43:49;;;;;;;2.00;0.70;;;6.10;62.80;;;;;;4341781;33;20194;-44
2021/04/09 02:46:27;;;;;;;0.60;0.50;;;6.10;62.90;;;;;;4329597;33;20059;-45
2021/04/09 02:48:58;;;;;;;3.13;0.40;;;6.10;63.00;;;;;;4343465;33;20082;-44
2021/04/09 02:51:25;;;;;;;0.80;0.60;;;6.10;63.00;;;;;;4343806;33;20075;-48
2021/04/09 02:53:51;;;;;;;0.30;0.30;;;6.20;62.90;;;;;;4329605;33;20066;-54
2021/04/09 02:56:17;;;;;;;1.17;0.53;;;6.20;62.80;;;;;;4341856;33;20082;-60
2021/04/09 02:58:44;;;;;;;0.30;0.30;;;6.30;62.80;;;;;;4329476;33;20059;-62
2021/04/09 03:01:11;;;;;;;2.00;0.93;;;6.30;62.80;;;;;;4317552;33;20160;-61
2021/04/09 03:03:37;;;;;;;2.50;1.20;;;6.30;62.80;;;;;;4317513;33;20110;-63
2021/04/09 03:06:05;;;;;;;1.00;0.30;;;6.40;62.70;;;;;;4329457;33;20519;-63
2021/04/09 03:08:31;;;;;;;2.23;1.30;;;6.50;62.50;;;;;;4341512;33;20055;-63
2021/04/09 03:11:01;;;;;;;0.50;0.37;;;6.50;62.30;;;;;;4341553;33;20098;-51
2021/04/09 03:13:28;;;;;;;1.07;0.67;;;6.60;62.10;;;;;;4343074;33;20078;-62
2021/04/09 03:15:59;;;;;;;5.80;2.40;;;6.70;62.00;;;;;;4342672;33;20067;-60
2021/04/09 03:18:30;;;;;;;1.17;0.87;;;6.80;61.90;;;;;;4342970;33;20478;-62
2021/04/09 03:20:56;;;;;;;5.47;1.37;;;6.80;61.90;;;;;;4329420;33;20062;-58
2021/04/09 03:23:23;;;;;;;7.80;3.43;;;6.80;61.90;;;;;;4342844;33;20098;-58
2021/04/09 03:25:49;;;;;;;1.57;0.90;;;6.90;61.90;;;;;;4343256;33;20063;-58
2021/04/09 03:28:16;;;;;;;0.17;0.17;;;6.90;61.80;;;;;;4343617;33;20152;-58
2021/04/09 03:30:49;;;;;;;3.13;0.60;;;6.90;61.80;;;;;;4342861;33;20051;-60
2021/04/09 03:33:20;;;;;;;2.97;0.90;;;6.90;61.70;;;;;;4343117;33;20059;-57
2021/04/09 03:35:47;;;;;;;2.50;0.50;;;6.90;61.80;;;;;;4341629;33;20063;-51
2021/04/09 03:38:16;;;;;;;1.17;0.80;;;6.90;61.90;;;;;;4343137;32;20075;-60
2021/04/09 03:40:43;;;;;;;3.93;1.23;;;6.90;62.10;;;;;;4310808;33;20075;-53
2021/04/09 03:43:13;;;;;;;0.93;0.30;;;6.90;62.20;;;;;;4310868;33;20199;-59
2021/04/09 03:45:40;;;;;;;0.97;0.30;;;6.80;62.30;;;;;;4311315;33;20171;-51
2021/04/09 03:48:07;;;;;;;1.33;0.30;;;6.90;62.40;;;;;;4298842;33;20161;-47
2021/04/09 03:50:33;;;;;;;0.43;0.30;;;6.80;62.50;;;;;;4298964;33;20094;-46
2021/04/09 03:53:00;;;;;;;0.33;0.33;;;6.80;62.50;;;;;;4310539;33;20076;-48
2021/04/09 03:55:26;;;;;;;1.93;0.90;;;6.80;62.60;;;;;;4311312;33;20110;-49
2021/04/09 03:57:53;;;;;;;0.80;0.60;;;6.80;62.60;;;;;;4298900;33;20236;-44
2021/04/09 04:00:20;;;;;;;1.70;0.87;;;6.80;62.70;;;;;;4299158;33;20516;-44
2021/04/09 04:02:46;;;;;;;1.23;0.60;;;6.80;62.80;;;;;;4298727;33;20078;-45
2021/04/09 04:05:14;;;;;;;2.93;0.90;;;6.80;62.80;;;;;;4298397;33;20457;-44
2021/04/09 04:07:41;;;;;;;0.53;0.30;;;6.70;63.00;;;;;;4310707;33;20099;-47
2021/04/09 04:10:08;;;;;;;2.60;1.00;;;6.70;63.00;;;;;;4312998;33;20142;-47
2021/04/09 04:12:35;;;;;;;2.03;1.07;;;6.70;63.10;;;;;;4313096;33;20087;-50
2021/04/09 04:15:02;;;;;;;3.00;1.17;;;6.70;63.00;;;;;;4313015;33;20095;-45
2021/04/09 04:17:28;;;;;;;1.40;0.90;;;6.70;63.00;;;;;;4292271;33;20546;-45
2021/04/09 04:19:54;;;;;;;1.93;1.10;;;6.60;63.20;;;;;;4328073;33;20591;-43
2021/04/09 04:22:21;;;;;;;1.83;1.33;;;6.50;63.10;;;;;;4315851;33;20603;-39
2021/04/09 04:24:48;;;;;;;2.23;1.33;;;6.40;63.90;;;;;;4298528;33;20300;-49
2021/04/09 04:27:14;;;;;;;3.87;2.30;;;6.30;63.50;;;;;;4298222;33;20079;-50
2021/04/09 04:29:40;;;;;;;4.43;2.47;;;6.30;64.00;;;;;;4298617;33;20480;-51
2021/04/09 04:32:08;;;;;;;3.77;2.70;;;6.20;64.20;;;;;;4298865;33;20120;-47
2021/04/09 04:34:34;;;;;;;2.50;1.87;;;6.20;64.30;;;;;;4297969;33;20071;-52
2021/04/09 04:37:01;;;;;;;2.73;1.37;;;6.20;64.60;;;;;;4298486;33;20130;-49
2021/04/09 04:39:27;;;;;;;3.23;2.17;;;6.30;64.70;;;;;;4279699;33;20083;-43
2021/04/09 04:41:54;;;;;;;4.30;1.30;;;6.30;64.60;;;;;;4327209;33;20078;-45
2021/04/09 04:44:20;;;;;;;1.73;1.40;;;6.30;64.60;;;;;;4327747;33;20106;-45
2021/04/09 04:46:47;;;;;;;3.07;1.00;;;6.30;64.60;;;;;;4315689;33;20066;-45
2021/04/09 04:49:13;;;;;;;5.00;1.67;;;6.30;64.80;;;;;;4327432;33;20106;-43
2021/04/09 04:51:39;;;;;;;2.00;1.00;;;6.30;64.70;;;;;;4327560;33;20056;-43
2021/04/09 04:54:06;;;;;;;2.50;1.03;;;6.20;64.90;;;;;;4327171;33;20071;-45
2021/04/09 04:56:32;;;;;;;4.57;1.40;;;6.30;65.00;;;;;;4341486;33;20065;-52
2021/04/09 04:58:59;;;;;;;2.47;1.67;;;6.20;65.20;;;;;;4344593;32;20091;-49
2021/04/09 05:01:25;;;;;;;1.50;1.10;;;6.20;65.30;;;;;;4344886;32;20098;-51
2021/04/09 05:03:52;;;;;;;0.93;0.77;;;6.30;65.50;;;;;;4344291;32;20054;-53
2021/04/09 05:06:18;;;;;;;1.83;1.20;;;6.30;65.50;;;;;;4344527;32;20086;-51
2021/04/09 05:08:45;;;;;;;1.30;0.80;;;6.30;65.50;;;;;;4344362;32;20082;-57
2021/04/09 05:11:11;;;;;;;1.73;1.03;;;6.40;65.50;;;;;;4331131;33;20522;-52
2021/04/09 05:13:37;;;;;;;2.10;1.50;;;6.50;65.40;;;;;;4342795;33;20146;-56
2021/04/09 05:16:04;;;;;;;2.57;1.90;;;6.60;65.10;;;;;;4344055;32;20569;-54
2021/04/09 05:18:31;;;;;;;5.50;2.77;;;6.60;65.00;;;;;;4344447;32;20170;-55
2021/04/09 05:20:57;;;;;;;4.17;2.30;;;6.60;64.90;;;;;;4344295;32;20474;-49
2021/04/09 05:23:24;;;;;;;2.30;1.40;;;6.50;65.10;;;;;;4344186;32;20078;-50
2021/04/09 05:25:50;;;;;;;2.30;1.17;;;6.50;65.30;;;;;;4344446;32;20066;-49
2021/04/09 05:28:17;;;;;;;3.20;2.37;;;6.60;65.30;;;;;;4344171;32;20632;-45
2021/04/09 05:30:43;;;;;;;4.90;1.10;;;6.60;65.10;;;;;;4344171;32;20117;-42
2021/04/09 05:33:10;;;;;;;2.90;1.60;;;6.50;65.80;;;;;;4343656;32;20221;-46
2021/04/09 05:35:37;;;;;;;3.60;1.70;;;6.60;65.10;;;;;;4330353;33;20067;-42
2021/04/09 05:38:03;;;;;;;3.33;2.13;;;6.70;65.20;;;;;;4343832;32;20157;-51
2021/04/09 05:40:30;;;;;;;2.77;1.60;;;6.80;65.10;;;;;;4344016;32;20557;-47
2021/04/09 05:43:01;;;;;;;1.10;0.70;;;6.70;65.10;;;;;;4326185;33;20078;-44
2021/04/09 05:45:28;;;;;;;2.83;1.73;;;6.80;65.00;;;;;;4327117;33;20067;-46
2021/04/09 05:48:00;;;;;;;3.70;1.50;;;7.00;65.00;;;;;;4326764;33;20078;-45
2021/04/09 05:50:27;;;;;;;2.93;1.67;;;7.10;64.50;;;;;;4326647;33;20140;-42
2021/04/09 05:52:53;;;;;;;1.50;1.00;;;7.10;64.20;;;;;;4326944;33;20539;-44
2021/04/09 05:55:20;;;;;;;0.57;0.50;;;7.10;64.00;;;;;;4314677;33;20075;-44
2021/04/09 05:57:46;;;;;;;1.97;1.40;;;7.20;63.90;;;;;;4326897;33;20098;-43
2021/04/09 06:00:14;;;;;;;4.63;0.90;;;7.20;63.80;;;;;;4326222;33;20093;-42
2021/04/09 06:02:40;;;;;;;1.83;1.00;;;7.20;63.70;;;;;;4326661;33;20142;-40
2021/04/09 06:05:08;;;;;;;3.10;1.33;;;7.20;63.50;;;;;;4313807;33;20134;-39
2021/04/09 06:07:35;;;;;;;2.27;0.97;;;7.20;63.70;;;;;;4325955;33;20150;-39
2021/04/09 06:10:01;;;;;;;1.03;0.43;;;7.20;63.60;;;;;;4326309;33;20090;-39
2021/04/09 06:12:28;;;;;;;1.67;1.13;;;7.20;63.30;;;;;;4326051;33;20079;-39
2021/04/09 06:14:54;;;;;;;1.43;1.10;;;7.30;63.40;;;;;;4326452;33;20087;-39
2021/04/09 06:17:21;;;;;;;0.80;0.63;;;7.30;63.30;;;;;;4314067;33;20483;-39
2021/04/09 06:19:47;;;;;;;2.00;0.93;;;7.30;63.50;;;;;;4330286;33;20558;-40
2021/04/09 06:22:15;;;;;;;2.33;1.60;;;7.40;63.50;;;;;;4343404;32;20082;-39
2021/04/09 06:24:42;;;;;;;1.73;1.10;;;7.40;63.40;;;;;;4343080;32;20094;-40
2021/04/09 06:27:09;;;;;;;1.77;1.23;;;7.40;63.00;;;;;;4341802;33;20059;-41
2021/04/09 06:29:39;;;;;;;3.13;1.20;;;7.50;62.80;;;;;;4343555;32;20065;-39
2021/04/09 06:32:06;;;;;;;2.27;1.20;;;7.30;62.60;;;;;;4341505;32;20140;-37
2021/04/09 06:34:33;;;;;;;2.07;1.50;;;7.20;63.00;;;;;;4344168;32;20098;-38
2021/04/09 06:36:59;;;;;;;1.73;0.90;;;7.20;63.10;;;;;;4356647;32;20070;-38
2021/04/09 06:39:26;;;;;;;2.07;1.17;;;7.30;63.30;;;;;;4342798;32;20120;-36
2021/04/09 06:41:53;;;;;;;1.90;0.63;;;7.40;63.80;;;;;;4342846;32;20055;-36
2021/04/09 06:44:19;;;;;;;2.47;0.97;;;7.40;63.30;;;;;;4343121;32;20110;-38
2021/04/09 06:46:46;;;;;;;1.77;1.00;;;7.40;62.90;;;;;;4343142;32;20533;-40
2021/04/09 06:49:13;;;;;;;4.67;0.90;;;7.40;62.90;;;;;;4343231;32;20159;-41
2021/04/09 06:51:46;;;;;;;4.60;1.40;;;7.30;63.20;;;;;;4343459;32;20574;-40
2021/04/09 06:54:13;;;;;;;4.23;1.53;;;7.30;63.40;;;;;;4343178;32;20058;-40
2021/04/09 06:56:40;;;;;;;2.60;1.07;;;7.30;63.70;;;;;;4343516;32;20160;-39
2021/04/09 06:59:07;;;;;;;1.47;1.00;;;7.30;63.80;;;;;;4343158;32;20673;-39
2021/04/09 07:01:35;;;;;;;2.30;1.30;;;7.30;63.80;;;;;;4343499;32;20474;-37
2021/04/09 07:04:01;;;;;;;3.20;1.10;;;7.40;63.80;;;;;;4330698;32;20094;-38
2021/04/09 07:06:31;;;;;;;2.80;2.03;;;7.50;63.70;;;;;;4330840;32;20578;-38
2021/04/09 07:08:58;;;;;;;2.70;1.60;;;7.50;63.20;;;;;;4313538;33;20539;-37
2021/04/09 07:11:24;;;;;;;2.73;1.47;;;7.50;63.20;;;;;;4338742;33;20144;-38
2021/04/09 07:13:52;;;;;;;2.90;1.40;;;7.40;63.40;;;;;;4328048;33;20806;-39
2021/04/09 07:16:19;;;;;;;2.90;1.60;;;7.40;63.50;;;;;;4340297;33;20587;-39
2021/04/09 07:18:53;;;;;;;1.87;1.50;;;7.40;63.40;;;;;;4340766;33;20070;-40
2021/04/09 07:21:20;;;;;;;3.60;1.40;;;7.30;63.60;;;;;;4328980;33;20092;-38
2021/04/09 07:23:47;;;;;;;1.63;1.30;;;7.30;63.70;;;;;;4328474;33;20066;-38
2021/04/09 07:26:46;;;;;;;4.03;1.20;;;7.40;63.50;;;;;;4328743;33;20063;-38
2021/04/09 07:29:31;;;;;;;1.67;1.30;;;7.50;63.40;;;;;;4339801;33;20077;-36
2021/04/09 07:32:14;;;;;;;2.65;1.42;;;7.50;63.40;;;;;;4341122;33;20071;-38
2021/04/09 07:35:06;;;;;;;1.50;1.20;;;7.60;63.40;;;;;;4338008;33;20098;-39
2021/04/09 07:37:48;;;;;;;1.93;0.97;;;7.50;63.20;;;;;;4313586;33;20063;-39
2021/04/09 07:40:18;;;;;;;3.83;1.40;;;7.40;63.20;;;;;;4325241;33;20558;-40
2021/04/09 07:42:46;;;;;;;2.60;1.10;;;7.50;63.20;;;;;;4326088;33;20522;-39
2021/04/09 07:45:14;;;;;;;1.33;0.90;;;7.40;63.10;;;;;;4328396;33;20471;-38
2021/04/09 07:47:56;;;;;;;1.73;0.70;;;7.40;63.30;;;;;;4343704;33;20535;-40
2021/04/09 07:50:43;;;;;;;4.43;1.30;;;7.40;63.30;;;;;;4321360;33;20070;-38
2021/04/09 07:53:14;;;;;;;1.83;1.10;;;7.40;63.40;;;;;;4331301;33;20086;-39
2021/04/09 07:55:41;;;;;;;1.70;1.50;;;7.40;63.30;;;;;;4318805;33;20091;-40
2021/04/09 07:58:23;;;;;;;1.40;0.93;;;7.30;63.20;;;;;;4330588;33;20062;-41
2021/04/09 08:00:51;;;;;;;1.43;0.90;;;7.20;63.70;;;;;;4330401;33;20144;-39
2021/04/09 08:03:38;;;;;;;2.03;1.10;;;7.20;64.10;;;;;;4330801;33;20163;-39
2021/04/09 08:06:15;;;;;;;2.20;1.10;;;7.30;63.70;;;;;;4330697;33;20091;-38
2021/04/09 08:09:01;;;;;;;1.30;1.00;;;7.40;63.80;;;;;;4330315;33;20059;-39
2021/04/09 08:11:38;;;;;;;1.93;1.20;;;7.30;64.30;;;;;;4330555;33;20072;-37
2021/04/09 08:14:09;;;;;;;1.70;1.20;;;7.40;63.80;;;;;;4318257;33;20101;-39
2021/04/09 08:16:36;;;;;;;1.10;0.80;;;7.30;63.70;;;;;;4330263;33;20067;-35
2021/04/09 08:19:14;;;;;;;1.30;0.90;;;7.30;63.80;;;;;;4342904;33;20107;-37
2021/04/09 08:21:44;;;;;;;1.90;1.30;;;7.30;63.90;;;;;;4330595;33;20071;-37
2021/04/09 08:24:11;;;;;;;1.90;1.30;;;7.30;63.90;;;;;;4330955;33;20082;-39
2021/04/09 08:26:38;;;;;;;1.20;0.80;;;7.30;63.90;;;;;;4335014;33;20086;-37
2021/04/09 08:29:08;;;;;;;2.13;1.10;;;7.40;63.90;;;;;;4345433;32;20143;-39
2021/04/09 08:31:36;;;;;;;2.17;0.90;;;7.40;63.80;;;;;;4300798;33;20071;-38
2021/04/09 08:34:03;;;;;;;2.37;1.13;;;7.40;63.80;;;;;;4313037;33;20117;-37
2021/04/09 08:36:30;;;;;;;2.80;1.03;;;7.30;63.70;;;;;;4301978;33;20067;-38
2021/04/09 08:38:56;;;;;;;3.33;1.40;;;7.40;63.80;;;;;;4272180;33;20077;-38
2021/04/09 08:41:23;;;;;;;1.70;1.10;;;7.40;63.80;;;;;;4248280;33;20083;-39
2021/04/09 08:43:50;;;;;;;2.33;1.23;;;7.40;63.80;;;;;;4271649;33;20087;-38
2021/04/09 08:46:16;;;;;;;1.80;1.00;;;7.30;63.70;;;;;;4257608;33;20141;-39
2021/04/09 08:48:43;;;;;;;1.87;1.60;;;7.30;63.70;;;;;;4257504;33;20127;-39
2021/04/09 08:51:10;;;;;;;1.23;0.80;;;7.30;63.50;;;;;;4257810;33;20085;-39
2021/04/09 08:53:37;;;;;;;2.17;1.30;;;7.20;63.70;;;;;;4257303;33;20079;-39
2021/04/09 08:56:04;;;;;;;2.10;1.20;;;7.20;63.70;;;;;;4269351;33;20079;-37
2021/04/09 08:58:45;;;;;;;1.83;0.80;;;7.30;63.60;;;;;;4269151;33;20160;-39
2021/04/09 09:01:13;;;;;;;2.40;1.37;;;7.40;63.50;;;;;;4222240;33;20569;-38
2021/04/09 09:03:40;;;;;;;1.53;0.93;;;7.50;63.30;;;;;;4231602;33;20111;-40
2021/04/09 09:06:08;;;;;;;2.13;1.30;;;7.50;63.10;;;;;;4243832;33;20179;-42
2021/04/09 09:08:46;;;;;;;1.20;0.83;;;7.40;63.10;;;;;;4243403;33;20196;-43
2021/04/09 09:11:14;;;;;;;2.40;1.47;;;7.40;63.20;;;;;;4255243;33;20159;-44
2021/04/09 09:13:42;;;;;;;2.73;1.20;;;7.40;63.00;;;;;;4254614;33;20143;-43
2021/04/09 09:16:19;;;;;;;4.73;2.40;;;7.40;63.10;;;;;;4271797;33;20454;-46
2021/04/09 09:18:56;;;;;;;4.23;2.73;;;7.50;63.10;;;;;;4312628;33;20140;-43
2021/04/09 09:21:26;;;;;;;5.30;3.03;;;7.40;63.00;;;;;;4312667;33;20079;-43
2021/04/09 09:24:17;;;;;;;4.67;2.40;;;7.40;63.10;;;;;;4300559;33;20123;-49
2021/04/09 09:26:48;;;;;;;3.00;2.07;;;7.30;63.20;;;;;;4288387;33;20078;-54
2021/04/09 09:29:31;;;;;;;2.40;1.70;;;7.30;63.40;;;;;;4300937;33;20066;-51
2021/04/09 09:32:30;;;;;;;3.33;2.27;;;7.20;63.70;;;;;;4300576;33;20067;-52
2021/04/09 09:34:57;;;;;;;2.80;1.53;;;7.20;63.70;;;;;;4301605;33;20098;-56
2021/04/09 09:37:29;;;;;;;2.57;1.33;;;7.20;63.70;;;;;;4299973;33;20530;-51
2021/04/09 09:39:58;;;;;;;1.40;1.30;;;7.20;63.70;;;;;;4344077;32;20062;-51
2021/04/09 09:42:27;;;;;;;1.17;0.80;;;7.10;63.60;;;;;;4344474;32;20061;-48
2021/04/09 09:45:15;;;;;;;2.67;1.20;;;7.20;63.70;;;;;;4343834;32;20069;-61
2021/04/09 09:47:45;;;;;;;2.20;1.23;;;7.10;63.60;;;;;;4342288;33;20588;-57
2021/04/09 09:50:28;;;;;;;2.13;1.20;;;6.90;63.90;;;;;;4330327;33;20075;-47
2021/04/09 09:53:05;;;;;;;2.93;1.33;;;6.90;64.30;;;;;;4343418;32;20621;-54
2021/04/09 09:55:46;;;;;;;3.27;1.83;;;6.90;64.50;;;;;;4343873;32;20074;-56
2021/04/09 09:58:17;;;;;;;3.03;1.57;;;6.90;64.60;;;;;;4343670;32;20063;-55
2021/04/09 10:00:52;;;;;;;2.30;1.43;;;6.90;64.60;;;;;;4342121;33;20090;-59
2021/04/09 10:03:33;;;;;;;2.10;1.20;;;7.00;64.60;;;;;;4342025;33;20076;-55
2021/04/09 10:06:00;;;;;;;1.33;1.03;;;7.00;64.50;;;;;;4343486;32;20054;-56
2021/04/09 10:08:28;;;;;;;3.43;2.20;;;7.00;64.40;;;;;;4343792;32;20074;-59
2021/04/09 10:11:14;;;;;;;2.00;1.60;;;7.00;64.30;;;;;;4329784;33;20520;-53
2021/04/09 10:13:42;;;;;;;4.83;1.10;;;7.00;64.30;;;;;;4344047;32;20077;-62
2021/04/09 10:16:13;;;;;;;3.37;1.87;;;7.00;64.40;;;;;;4343528;32;20074;-52
2021/04/09 10:18:41;;;;;;;2.60;1.87;;;7.00;64.50;;;;;;4343851;32;20151;-49
2021/04/09 10:21:32;;;;;;;2.80;1.67;;;7.00;64.40;;;;;;4343793;32;20153;-53
2021/04/09 10:24:10;;;;;;;3.73;1.70;;;7.00;65.20;;;;;;4343684;32;20094;-48
2021/04/09 10:27:03;;;;;;;1.80;1.20;;;6.90;64.50;;;;;;4343437;32;20233;-49
2021/04/09 10:29:35;;;;;;;1.70;1.27;;;6.90;64.80;;;;;;4340657;32;20162;-47
2021/04/09 10:32:04;;;;;;;2.00;1.27;;;6.90;65.10;;;;;;4342781;32;20099;-48
2021/04/09 10:34:33;;;;;;;2.93;2.20;;;6.90;64.80;;;;;;4344085;32;20554;-45
2021/04/09 10:37:01;;;;;;;3.30;2.37;;;6.90;64.90;;;;;;4358470;32;20171;-47
2021/04/09 10:39:28;;;;;;;4.03;2.63;;;6.90;64.90;;;;;;4357837;32;20536;-47
2021/04/09 10:41:56;;;;;;;3.63;2.43;;;6.90;64.90;;;;;;4356718;32;20135;-44
2021/04/09 10:44:25;;;;;;;3.53;2.87;;;7.00;64.80;;;;;;4358529;32;20061;-46
2021/04/09 10:47:09;;;;;;;2.53;1.80;;;6.90;64.80;;;;;;4358047;32;20078;-45
2021/04/09 10:49:43;;;;;;;2.05;1.50;;;6.90;64.90;;;;;;4356176;32;20554;-47
2021/04/09 10:52:20;;;;;;;2.30;1.47;;;6.90;64.80;;;;;;4356272;32;20086;-43
2021/04/09 10:54:49;;;;;;;2.07;1.33;;;6.90;64.80;;;;;;4357510;32;20518;-45
2021/04/09 10:57:18;;;;;;;4.73;2.37;;;7.10;64.90;;;;;;4358300;32;20148;-48
2021/04/09 10:59:49;;;;;;;1.63;1.30;;;7.10;64.60;;;;;;4356299;32;20471;-45
2021/04/09 11:02:21;;;;;;;2.33;1.43;;;7.10;64.30;;;;;;4358039;32;20469;-41
2021/04/09 11:04:52;;;;;;;1.87;1.30;;;7.10;64.30;;;;;;4356845;32;20070;-43
2021/04/09 11:07:18;;;;;;;3.10;1.57;;;7.20;64.20;;;;;;4356563;32;20158;-43
2021/04/09 11:09:47;;;;;;;1.70;1.20;;;7.20;64.20;;;;;;4343839;32;20149;-41
2021/04/09 11:12:23;;;;;;;1.80;1.27;;;7.20;64.20;;;;;;4356514;32;20066;-44
2021/04/09 11:15:02;;;;;;;1.57;1.10;;;7.20;64.30;;;;;;4357898;32;20564;-45
2021/04/09 11:17:29;;;;;;;1.60;1.23;;;7.20;64.10;;;;;;4359393;32;20490;-43
2021/04/09 11:19:57;;;;;;;1.93;1.30;;;7.20;64.10;;;;;;4361326;32;20062;-45
2021/04/09 11:22:28;;;;;;;2.53;0.80;;;7.20;64.20;;;;;;4361004;32;20509;-43
2021/04/09 11:25:06;;;;;;;1.50;1.30;;;7.10;64.30;;;;;;4359270;32;20070;-42
2021/04/09 11:27:34;;;;;;;3.83;1.83;;;7.20;64.50;;;;;;4359813;32;20141;-44
2021/04/09 11:30:22;;;;;;;1.90;1.20;;;7.20;64.50;;;;;;4347447;32;20074;-43
2021/04/09 11:32:51;;;;;;;3.53;1.60;;;7.30;64.50;;;;;;4361007;32;20473;-41
2021/04/09 11:35:19;;;;;;;2.10;1.10;;;7.40;64.50;;;;;;4354614;32;20082;-41
2021/04/09 11:37:55;;;;;;;2.83;1.37;;;7.40;64.30;;;;;;4332191;33;20074;-41
2021/04/09 11:40:44;;;;;;;2.47;1.30;;;7.50;64.20;;;;;;4346021;33;20075;-41
2021/04/09 11:43:12;;;;;;;2.17;1.27;;;7.50;64.00;;;;;;4346221;33;20160;-40
2021/04/09 11:45:50;;;;;;;1.77;1.00;;;7.60;63.90;;;;;;4344423;33;20070;-40
2021/04/09 11:48:31;;;;;;;3.80;1.30;;;7.60;63.90;;;;;;4344193;33;20089;-41
2021/04/09 11:51:20;;;;;;;3.03;1.70;;;7.60;63.90;;;;;;4328426;33;20087;-41
2021/04/09 11:54:04;;;;;;;2.40;1.17;;;7.60;63.80;;;;;;4328091;33;20078;-41
2021/04/09 11:56:48;;;;;;;3.50;1.13;;;7.60;63.40;;;;;;4316617;33;20051;-40
2021/04/09 11:59:19;;;;;;;1.83;1.00;;;7.50;63.70;;;;;;4316731;33;20067;-38
2021/04/09 12:01:47;;;;;;;1.83;1.10;;;7.50;63.60;;;;;;4299119;33;20071;-38
2021/04/09 12:04:36;;;;;;;2.80;1.13;;;7.50;63.80;;;;;;4299124;33;20622;-37
2021/04/09 12:07:14;;;;;;;1.30;0.80;;;7.50;63.50;;;;;;4299013;33;20167;-37
2021/04/09 12:09:42;;;;;;;1.60;1.10;;;7.50;63.70;;;;;;4275829;33;20215;-39
2021/04/09 12:12:11;;;;;;;1.43;0.90;;;7.50;63.40;;;;;;4299334;33;20167;-39
2021/04/09 12:14:47;;;;;;;1.50;0.83;;;7.50;63.10;;;;;;4299002;33;20575;-39
2021/04/09 12:17:15;;;;;;;1.70;1.13;;;7.50;63.20;;;;;;4298558;33;20153;-40
2021/04/09 12:19:43;;;;;;;1.20;0.90;;;7.50;63.20;;;;;;4299162;33;20092;-39
2021/04/09 12:22:10;;;;;;;1.40;0.90;;;7.40;63.20;;;;;;4315052;33;20082;-42
2021/04/09 12:24:36;;;;;;;1.63;1.07;;;7.50;63.20;;;;;;4315591;33;20504;-41
2021/04/09 12:27:04;;;;;;;2.33;1.30;;;7.50;63.30;;;;;;4327889;33;20449;-40
2021/04/09 12:29:32;;;;;;;3.90;1.30;;;7.50;63.10;;;;;;4327183;33;20083;-38
2021/04/09 12:31:58;;;;;;;1.90;0.90;;;7.50;63.00;;;;;;4327966;33;20233;-40
2021/04/09 12:34:25;;;;;;;2.23;0.90;;;7.50;62.90;;;;;;4316134;33;20067;-40
2021/04/09 12:36:51;;;;;;;1.70;1.00;;;7.50;62.90;;;;;;4342340;33;20492;-38
2021/04/09 12:39:19;;;;;;;1.23;0.80;;;7.40;62.70;;;;;;4350410;32;20058;-38
2021/04/09 12:41:46;;;;;;;0.90;0.63;;;7.30;62.90;;;;;;4357489;32;20093;-37
2021/04/09 12:44:15;;;;;;;4.30;1.93;;;7.40;63.00;;;;;;4332137;32;20076;-38
2021/04/09 12:46:48;;;;;;;1.87;1.03;;;7.30;62.70;;;;;;4357376;32;20137;-39
2021/04/09 12:49:19;;;;;;;2.80;1.60;;;7.20;63.00;;;;;;4333289;32;20074;-38
2021/04/09 12:51:46;;;;;;;1.83;1.20;;;7.10;63.20;;;;;;4333006;32;20082;-39
2021/04/09 12:54:13;;;;;;;1.30;0.90;;;7.10;63.30;;;;;;4344721;32;20078;-38
2021/04/09 12:56:40;;;;;;;1.00;0.80;;;7.10;63.50;;;;;;4328873;33;20090;-38
2021/04/09 12:59:07;;;;;;;2.10;1.10;;;7.00;63.60;;;;;;4341859;33;20079;-38
2021/04/09 13:01:33;;;;;;;2.00;1.23;;;7.00;63.80;;;;;;4329894;33;20094;-38
2021/04/09 13:04:00;;;;;;;2.07;1.20;;;7.00;63.60;;;;;;4342424;33;20058;-35
2021/04/09 13:06:27;;;;;;;2.70;1.37;;;7.00;63.60;;;;;;4342147;33;20145;-38
2021/04/09 13:08:53;;;;;;;2.30;1.20;;;7.10;63.60;;;;;;4329924;33;20067;-35
2021/04/09 13:11:20;;;;;;;2.53;1.07;;;7.00;63.60;;;;;;4341925;33;20086;-37
2021/04/09 13:13:47;;;;;;;2.20;1.07;;;7.10;63.60;;;;;;4327361;33;20062;-35